sensor_id;sensor_type;location;lat;lon;timestamp;P1;durP1;ratioP1;P2;durP2;ratioP2
60098;SDS011;62818;49.394;8.686;2022-08-21T00:00:12;3.78;;;2.17;;
60098;SDS011;62818;49.394;8.686;2022-08-21T00:01:20;5.97;;;2.40;;
60098;SDS011;62818;49.394;8.686;2022-08-21T00:02:25;6.70;;;1.85;;
60098;SDS011;62818;49.394;8.686;2022-08-21T00:03:28;4.85;;;2.10;;
60098;SDS011;62818;49.394;8.686;2022-08-21T00:04:31;6.68;;;2.15;;
60098;SDS011;62818;49.394;8.686;2022-08-21T00:05:36;3.67;;;2.30;;
60098;SDS011;62818;49.394;8.686;2022-08-21T00:06:44;5.07;;;2.20;;
60098;SDS011;62818;49.394;8.686;2022-08-21T00:07:50;4.97;;;2.40;;
60098;SDS011;62818;49.394;8.686;2022-08-21T00:08:51;4.63;;;2.25;;
60098;SDS011;62818;49.394;8.686;2022-08-21T00:09:52;8.53;;;2.73;;
60098;SDS011;62818;49.394;8.686;2022-08-21T00:10:55;4.55;;;2.20;;
60098;SDS011;62818;49.394;8.686;2022-08-21T00:11:55;5.97;;;2.20;;
60098;SDS011;62818;49.394;8.686;2022-08-21T00:12:59;3.95;;;2.33;;
60098;SDS011;62818;49.394;8.686;2022-08-21T00:14:02;2.47;;;1.83;;
60098;SDS011;62818;49.394;8.686;2022-08-21T00:15:06;2.60;;;2.08;;
60098;SDS011;62818;49.394;8.686;2022-08-21T00:16:13;6.10;;;2.42;;
60098;SDS011;62818;49.394;8.686;2022-08-21T00:17:18;3.53;;;1.95;;
60098;SDS011;62818;49.394;8.686;2022-08-21T00:18:24;4.18;;;2.50;;
60098;SDS011;62818;49.394;8.686;2022-08-21T00:19:25;4.82;;;2.00;;
60098;SDS011;62818;49.394;8.686;2022-08-21T00:20:26;3.65;;;2.00;;
60098;SDS011;62818;49.394;8.686;2022-08-21T00:21:30;4.43;;;2.15;;
60098;SDS011;62818;49.394;8.686;2022-08-21T00:22:38;5.10;;;2.67;;
60098;SDS011;62818;49.394;8.686;2022-08-21T00:23:44;4.45;;;2.33;;
60098;SDS011;62818;49.394;8.686;2022-08-21T00:24:44;5.57;;;2.13;;
60098;SDS011;62818;49.394;8.686;2022-08-21T00:25:45;5.27;;;2.30;;
60098;SDS011;62818;49.394;8.686;2022-08-21T00:26:51;7.20;;;2.35;;
60098;SDS011;62818;49.394;8.686;2022-08-21T00:27:55;4.22;;;2.33;;
60098;SDS011;62818;49.394;8.686;2022-08-21T00:28:56;5.82;;;2.33;;
60098;SDS011;62818;49.394;8.686;2022-08-21T00:29:57;4.87;;;1.90;;
60098;SDS011;62818;49.394;8.686;2022-08-21T00:31:00;5.50;;;2.43;;
60098;SDS011;62818;49.394;8.686;2022-08-21T00:32:06;6.38;;;2.05;;
60098;SDS011;62818;49.394;8.686;2022-08-21T00:33:11;3.70;;;2.20;;
60098;SDS011;62818;49.394;8.686;2022-08-21T00:34:14;4.47;;;2.53;;
60098;SDS011;62818;49.394;8.686;2022-08-21T00:35:18;7.38;;;2.60;;
60098;SDS011;62818;49.394;8.686;2022-08-21T00:36:24;7.97;;;2.15;;
60098;SDS011;62818;49.394;8.686;2022-08-21T00:37:32;6.25;;;2.40;;
60098;SDS011;62818;49.394;8.686;2022-08-21T00:38:38;4.75;;;2.38;;
60098;SDS011;62818;49.394;8.686;2022-08-21T00:39:46;4.72;;;2.35;;
60098;SDS011;62818;49.394;8.686;2022-08-21T00:40:55;5.43;;;2.65;;
60098;SDS011;62818;49.394;8.686;2022-08-21T00:42:02;5.03;;;2.17;;
60098;SDS011;62818;49.394;8.686;2022-08-21T00:43:04;4.07;;;2.38;;
60098;SDS011;62818;49.394;8.686;2022-08-21T00:44:11;3.90;;;2.40;;
60098;SDS011;62818;49.394;8.686;2022-08-21T00:45:15;5.70;;;2.60;;
60098;SDS011;62818;49.394;8.686;2022-08-21T00:46:19;3.80;;;2.08;;
60098;SDS011;62818;49.394;8.686;2022-08-21T00:47:26;5.53;;;2.50;;
60098;SDS011;62818;49.394;8.686;2022-08-21T00:48:27;4.28;;;2.40;;
60098;SDS011;62818;49.394;8.686;2022-08-21T00:49:33;5.65;;;2.40;;
60098;SDS011;62818;49.394;8.686;2022-08-21T00:50:42;7.35;;;2.40;;
60098;SDS011;62818;49.394;8.686;2022-08-21T00:51:51;6.40;;;2.42;;
60098;SDS011;62818;49.394;8.686;2022-08-21T00:52:58;3.90;;;1.98;;
60098;SDS011;62818;49.394;8.686;2022-08-21T00:54:08;6.25;;;2.33;;
60098;SDS011;62818;49.394;8.686;2022-08-21T00:55:11;4.15;;;2.33;;
60098;SDS011;62818;49.394;8.686;2022-08-21T00:56:16;5.50;;;2.20;;
60098;SDS011;62818;49.394;8.686;2022-08-21T00:57:19;8.20;;;2.22;;
60098;SDS011;62818;49.394;8.686;2022-08-21T00:58:27;6.75;;;3.15;;
60098;SDS011;62818;49.394;8.686;2022-08-21T00:59:36;8.48;;;2.58;;
60098;SDS011;62818;49.394;8.686;2022-08-21T01:00:44;5.18;;;2.42;;
60098;SDS011;62818;49.394;8.686;2022-08-21T01:01:50;5.28;;;2.22;;
60098;SDS011;62818;49.394;8.686;2022-08-21T01:02:52;4.30;;;2.40;;
60098;SDS011;62818;49.394;8.686;2022-08-21T01:03:52;7.70;;;2.63;;
60098;SDS011;62818;49.394;8.686;2022-08-21T01:04:56;5.00;;;2.67;;
60098;SDS011;62818;49.394;8.686;2022-08-21T01:05:57;6.43;;;2.35;;
60098;SDS011;62818;49.394;8.686;2022-08-21T01:07:02;4.82;;;2.58;;
60098;SDS011;62818;49.394;8.686;2022-08-21T01:08:07;6.97;;;2.47;;
60098;SDS011;62818;49.394;8.686;2022-08-21T01:09:13;4.43;;;2.10;;
60098;SDS011;62818;49.394;8.686;2022-08-21T01:11:15;6.20;;;2.60;;
60098;SDS011;62818;49.394;8.686;2022-08-21T01:12:20;3.58;;;1.95;;
60098;SDS011;62818;49.394;8.686;2022-08-21T01:13:25;5.35;;;2.40;;
60098;SDS011;62818;49.394;8.686;2022-08-21T01:14:34;6.43;;;3.15;;
60098;SDS011;62818;49.394;8.686;2022-08-21T01:15:45;7.57;;;2.53;;
60098;SDS011;62818;49.394;8.686;2022-08-21T01:16:52;4.72;;;2.65;;
60098;SDS011;62818;49.394;8.686;2022-08-21T01:17:56;4.68;;;2.67;;
60098;SDS011;62818;49.394;8.686;2022-08-21T01:18:56;5.90;;;2.50;;
60098;SDS011;62818;49.394;8.686;2022-08-21T01:20:06;4.60;;;2.10;;
60098;SDS011;62818;49.394;8.686;2022-08-21T01:21:16;6.55;;;2.03;;
60098;SDS011;62818;49.394;8.686;2022-08-21T01:22:23;5.82;;;2.42;;
60098;SDS011;62818;49.394;8.686;2022-08-21T01:23:24;5.70;;;2.47;;
60098;SDS011;62818;49.394;8.686;2022-08-21T01:24:27;5.82;;;2.58;;
60098;SDS011;62818;49.394;8.686;2022-08-21T01:25:32;5.82;;;2.70;;
60098;SDS011;62818;49.394;8.686;2022-08-21T01:26:35;4.15;;;2.42;;
60098;SDS011;62818;49.394;8.686;2022-08-21T01:27:43;8.93;;;2.70;;
60098;SDS011;62818;49.394;8.686;2022-08-21T01:30:24;4.35;;;2.00;;
60098;SDS011;62818;49.394;8.686;2022-08-21T01:31:30;4.13;;;2.25;;
60098;SDS011;62818;49.394;8.686;2022-08-21T01:32:33;5.85;;;2.33;;
60098;SDS011;62818;49.394;8.686;2022-08-21T01:33:33;3.78;;;2.35;;
60098;SDS011;62818;49.394;8.686;2022-08-21T01:34:37;4.57;;;2.58;;
60098;SDS011;62818;49.394;8.686;2022-08-21T01:35:41;5.50;;;2.60;;
60098;SDS011;62818;49.394;8.686;2022-08-21T01:36:42;6.53;;;2.13;;
60098;SDS011;62818;49.394;8.686;2022-08-21T01:37:50;3.15;;;2.45;;
60098;SDS011;62818;49.394;8.686;2022-08-21T01:38:51;4.65;;;2.38;;
60098;SDS011;62818;49.394;8.686;2022-08-21T01:39:51;6.07;;;2.70;;
60098;SDS011;62818;49.394;8.686;2022-08-21T01:40:56;7.32;;;2.50;;
60098;SDS011;62818;49.394;8.686;2022-08-21T01:42:02;8.70;;;2.53;;
60098;SDS011;62818;49.394;8.686;2022-08-21T01:43:06;3.63;;;2.85;;
60098;SDS011;62818;49.394;8.686;2022-08-21T01:44:07;4.30;;;2.50;;
60098;SDS011;62818;49.394;8.686;2022-08-21T01:45:13;4.88;;;2.55;;
60098;SDS011;62818;49.394;8.686;2022-08-21T01:46:17;5.82;;;2.38;;
60098;SDS011;62818;49.394;8.686;2022-08-21T01:47:20;5.82;;;2.63;;
60098;SDS011;62818;49.394;8.686;2022-08-21T01:48:23;5.70;;;2.50;;
60098;SDS011;62818;49.394;8.686;2022-08-21T01:49:30;4.82;;;2.50;;
60098;SDS011;62818;49.394;8.686;2022-08-21T01:50:36;4.20;;;2.03;;
60098;SDS011;62818;49.394;8.686;2022-08-21T01:51:37;4.75;;;2.63;;
60098;SDS011;62818;49.394;8.686;2022-08-21T01:52:38;4.37;;;2.37;;
60098;SDS011;62818;49.394;8.686;2022-08-21T01:53:43;3.92;;;2.10;;
60098;SDS011;62818;49.394;8.686;2022-08-21T01:54:46;4.80;;;2.15;;
60098;SDS011;62818;49.394;8.686;2022-08-21T01:55:47;4.33;;;2.43;;
60098;SDS011;62818;49.394;8.686;2022-08-21T01:56:52;5.40;;;2.83;;
60098;SDS011;62818;49.394;8.686;2022-08-21T01:57:54;3.95;;;2.10;;
60098;SDS011;62818;49.394;8.686;2022-08-21T01:58:59;4.15;;;2.42;;
60098;SDS011;62818;49.394;8.686;2022-08-21T02:00:04;5.93;;;2.50;;
60098;SDS011;62818;49.394;8.686;2022-08-21T02:01:12;5.80;;;2.45;;
60098;SDS011;62818;49.394;8.686;2022-08-21T02:02:13;2.88;;;2.13;;
60098;SDS011;62818;49.394;8.686;2022-08-21T02:03:14;4.07;;;2.58;;
60098;SDS011;62818;49.394;8.686;2022-08-21T02:04:15;5.18;;;2.50;;
60098;SDS011;62818;49.394;8.686;2022-08-21T02:05:19;5.22;;;2.42;;
60098;SDS011;62818;49.394;8.686;2022-08-21T02:06:22;7.45;;;3.42;;
60098;SDS011;62818;49.394;8.686;2022-08-21T02:07:25;6.30;;;2.40;;
60098;SDS011;62818;49.394;8.686;2022-08-21T02:08:28;7.90;;;2.47;;
60098;SDS011;62818;49.394;8.686;2022-08-21T02:09:32;5.10;;;2.30;;
60098;SDS011;62818;49.394;8.686;2022-08-21T02:10:38;7.63;;;2.55;;
60098;SDS011;62818;49.394;8.686;2022-08-21T02:11:41;6.30;;;2.22;;
60098;SDS011;62818;49.394;8.686;2022-08-21T02:12:42;3.40;;;2.20;;
60098;SDS011;62818;49.394;8.686;2022-08-21T02:13:45;4.60;;;2.13;;
60098;SDS011;62818;49.394;8.686;2022-08-21T02:14:46;4.93;;;2.30;;
60098;SDS011;62818;49.394;8.686;2022-08-21T02:15:49;4.25;;;2.20;;
60098;SDS011;62818;49.394;8.686;2022-08-21T02:16:49;3.43;;;2.33;;
60098;SDS011;62818;49.394;8.686;2022-08-21T02:17:54;4.63;;;2.20;;
60098;SDS011;62818;49.394;8.686;2022-08-21T02:18:58;3.25;;;2.00;;
60098;SDS011;62818;49.394;8.686;2022-08-21T02:19:59;3.17;;;2.20;;
60098;SDS011;62818;49.394;8.686;2022-08-21T02:21:02;5.95;;;2.45;;
60098;SDS011;62818;49.394;8.686;2022-08-21T02:22:05;4.55;;;2.70;;
60098;SDS011;62818;49.394;8.686;2022-08-21T02:23:11;4.95;;;2.40;;
60098;SDS011;62818;49.394;8.686;2022-08-21T02:24:15;4.78;;;2.55;;
60098;SDS011;62818;49.394;8.686;2022-08-21T02:25:15;3.63;;;2.30;;
60098;SDS011;62818;49.394;8.686;2022-08-21T02:26:17;4.35;;;2.58;;
60098;SDS011;62818;49.394;8.686;2022-08-21T02:27:24;4.45;;;2.80;;
60098;SDS011;62818;49.394;8.686;2022-08-21T02:28:30;6.50;;;2.95;;
60098;SDS011;62818;49.394;8.686;2022-08-21T02:29:34;4.68;;;2.65;;
60098;SDS011;62818;49.394;8.686;2022-08-21T02:30:41;4.18;;;2.72;;
60098;SDS011;62818;49.394;8.686;2022-08-21T02:31:48;4.45;;;2.70;;
60098;SDS011;62818;49.394;8.686;2022-08-21T02:32:53;5.13;;;2.53;;
60098;SDS011;62818;49.394;8.686;2022-08-21T02:33:59;3.30;;;2.50;;
60098;SDS011;62818;49.394;8.686;2022-08-21T02:35:00;5.38;;;2.50;;
60098;SDS011;62818;49.394;8.686;2022-08-21T02:36:01;4.30;;;2.67;;
60098;SDS011;62818;49.394;8.686;2022-08-21T02:37:03;4.05;;;2.42;;
60098;SDS011;62818;49.394;8.686;2022-08-21T02:38:06;5.30;;;2.72;;
60098;SDS011;62818;49.394;8.686;2022-08-21T02:39:12;6.13;;;2.30;;
60098;SDS011;62818;49.394;8.686;2022-08-21T02:40:16;3.78;;;2.20;;
60098;SDS011;62818;49.394;8.686;2022-08-21T02:41:20;4.28;;;2.55;;
60098;SDS011;62818;49.394;8.686;2022-08-21T02:42:22;5.20;;;2.50;;
60098;SDS011;62818;49.394;8.686;2022-08-21T02:43:27;3.40;;;2.35;;
60098;SDS011;62818;49.394;8.686;2022-08-21T02:44:30;4.57;;;2.60;;
60098;SDS011;62818;49.394;8.686;2022-08-21T02:45:31;4.00;;;2.60;;
60098;SDS011;62818;49.394;8.686;2022-08-21T02:46:37;5.32;;;2.75;;
60098;SDS011;62818;49.394;8.686;2022-08-21T02:47:46;3.45;;;2.47;;
60098;SDS011;62818;49.394;8.686;2022-08-21T02:48:52;3.85;;;2.50;;
60098;SDS011;62818;49.394;8.686;2022-08-21T02:49:55;6.65;;;2.97;;
60098;SDS011;62818;49.394;8.686;2022-08-21T02:51:02;5.13;;;2.57;;
60098;SDS011;62818;49.394;8.686;2022-08-21T02:52:11;5.95;;;2.15;;
60098;SDS011;62818;49.394;8.686;2022-08-21T02:53:15;5.88;;;2.33;;
60098;SDS011;62818;49.394;8.686;2022-08-21T02:54:19;4.15;;;2.67;;
60098;SDS011;62818;49.394;8.686;2022-08-21T02:55:22;4.78;;;2.72;;
60098;SDS011;62818;49.394;8.686;2022-08-21T02:56:26;4.35;;;2.35;;
60098;SDS011;62818;49.394;8.686;2022-08-21T02:57:29;6.47;;;2.63;;
60098;SDS011;62818;49.394;8.686;2022-08-21T02:58:32;6.15;;;3.30;;
60098;SDS011;62818;49.394;8.686;2022-08-21T02:59:38;4.93;;;2.50;;
60098;SDS011;62818;49.394;8.686;2022-08-21T03:00:43;6.05;;;2.60;;
60098;SDS011;62818;49.394;8.686;2022-08-21T03:01:46;4.60;;;2.38;;
60098;SDS011;62818;49.394;8.686;2022-08-21T03:02:47;5.43;;;2.60;;
60098;SDS011;62818;49.394;8.686;2022-08-21T03:03:50;4.82;;;2.42;;
60098;SDS011;62818;49.394;8.686;2022-08-21T03:04:53;4.28;;;2.45;;
60098;SDS011;62818;49.394;8.686;2022-08-21T03:05:56;6.32;;;2.90;;
60098;SDS011;62818;49.394;8.686;2022-08-21T03:06:59;4.57;;;2.50;;
60098;SDS011;62818;49.394;8.686;2022-08-21T03:08:03;7.93;;;2.72;;
60098;SDS011;62818;49.394;8.686;2022-08-21T03:09:10;6.35;;;2.63;;
60098;SDS011;62818;49.394;8.686;2022-08-21T03:10:13;4.50;;;2.40;;
60098;SDS011;62818;49.394;8.686;2022-08-21T03:11:19;4.57;;;2.50;;
60098;SDS011;62818;49.394;8.686;2022-08-21T03:12:20;3.97;;;2.65;;
60098;SDS011;62818;49.394;8.686;2022-08-21T03:13:21;5.33;;;2.70;;
60098;SDS011;62818;49.394;8.686;2022-08-21T03:14:23;5.15;;;2.70;;
60098;SDS011;62818;49.394;8.686;2022-08-21T03:15:29;3.83;;;2.45;;
60098;SDS011;62818;49.394;8.686;2022-08-21T03:18:36;6.65;;;3.22;;
60098;SDS011;62818;49.394;8.686;2022-08-21T03:19:39;4.75;;;2.53;;
60098;SDS011;62818;49.394;8.686;2022-08-21T03:20:40;5.72;;;2.97;;
60098;SDS011;62818;49.394;8.686;2022-08-21T03:21:52;4.38;;;2.65;;
60098;SDS011;62818;49.394;8.686;2022-08-21T03:22:55;4.18;;;2.30;;
60098;SDS011;62818;49.394;8.686;2022-08-21T03:23:55;5.97;;;2.67;;
60098;SDS011;62818;49.394;8.686;2022-08-21T03:24:58;5.38;;;3.25;;
60098;SDS011;62818;49.394;8.686;2022-08-21T03:26:00;4.03;;;2.70;;
60098;SDS011;62818;49.394;8.686;2022-08-21T03:27:03;6.13;;;2.78;;
60098;SDS011;62818;49.394;8.686;2022-08-21T03:28:08;5.53;;;2.38;;
60098;SDS011;62818;49.394;8.686;2022-08-21T03:29:12;3.35;;;2.50;;
60098;SDS011;62818;49.394;8.686;2022-08-21T03:30:17;4.82;;;2.67;;
60098;SDS011;62818;49.394;8.686;2022-08-21T03:31:23;5.60;;;3.00;;
60098;SDS011;62818;49.394;8.686;2022-08-21T03:32:30;6.07;;;2.50;;
60098;SDS011;62818;49.394;8.686;2022-08-21T03:33:31;5.18;;;3.00;;
60098;SDS011;62818;49.394;8.686;2022-08-21T03:34:32;5.20;;;2.92;;
60098;SDS011;62818;49.394;8.686;2022-08-21T03:35:37;7.40;;;2.88;;
60098;SDS011;62818;49.394;8.686;2022-08-21T03:36:43;5.85;;;2.85;;
60098;SDS011;62818;49.394;8.686;2022-08-21T03:37:43;12.77;;;2.90;;
60098;SDS011;62818;49.394;8.686;2022-08-21T03:38:50;5.32;;;2.55;;
60098;SDS011;62818;49.394;8.686;2022-08-21T03:39:52;4.70;;;2.55;;
60098;SDS011;62818;49.394;8.686;2022-08-21T03:40:56;8.80;;;2.78;;
60098;SDS011;62818;49.394;8.686;2022-08-21T03:41:58;7.78;;;2.95;;
60098;SDS011;62818;49.394;8.686;2022-08-21T03:43:01;6.57;;;3.13;;
60098;SDS011;62818;49.394;8.686;2022-08-21T03:44:04;6.20;;;3.25;;
60098;SDS011;62818;49.394;8.686;2022-08-21T03:45:05;3.07;;;2.50;;
60098;SDS011;62818;49.394;8.686;2022-08-21T03:46:09;6.28;;;3.10;;
60098;SDS011;62818;49.394;8.686;2022-08-21T03:47:13;5.75;;;3.38;;
60098;SDS011;62818;49.394;8.686;2022-08-21T03:48:14;4.40;;;2.85;;
60098;SDS011;62818;49.394;8.686;2022-08-21T03:49:17;3.95;;;2.85;;
60098;SDS011;62818;49.394;8.686;2022-08-21T03:50:18;4.60;;;3.03;;
60098;SDS011;62818;49.394;8.686;2022-08-21T03:51:18;3.60;;;2.55;;
60098;SDS011;62818;49.394;8.686;2022-08-21T03:52:22;5.20;;;2.67;;
60098;SDS011;62818;49.394;8.686;2022-08-21T03:53:25;4.47;;;2.55;;
60098;SDS011;62818;49.394;8.686;2022-08-21T03:54:26;5.97;;;2.80;;
60098;SDS011;62818;49.394;8.686;2022-08-21T03:55:30;7.68;;;2.92;;
60098;SDS011;62818;49.394;8.686;2022-08-21T03:56:30;4.18;;;2.80;;
60098;SDS011;62818;49.394;8.686;2022-08-21T03:57:35;6.30;;;2.70;;
60098;SDS011;62818;49.394;8.686;2022-08-21T03:58:38;5.13;;;3.00;;
60098;SDS011;62818;49.394;8.686;2022-08-21T03:59:41;5.60;;;2.83;;
60098;SDS011;62818;49.394;8.686;2022-08-21T04:00:45;6.85;;;3.10;;
60098;SDS011;62818;49.394;8.686;2022-08-21T04:01:56;4.32;;;2.70;;
60098;SDS011;62818;49.394;8.686;2022-08-21T04:03:00;5.63;;;2.70;;
60098;SDS011;62818;49.394;8.686;2022-08-21T04:04:01;4.80;;;2.87;;
60098;SDS011;62818;49.394;8.686;2022-08-21T04:05:06;5.43;;;2.83;;
60098;SDS011;62818;49.394;8.686;2022-08-21T04:06:08;3.85;;;3.00;;
60098;SDS011;62818;49.394;8.686;2022-08-21T04:07:11;5.00;;;2.75;;
60098;SDS011;62818;49.394;8.686;2022-08-21T04:08:11;5.77;;;3.20;;
60098;SDS011;62818;49.394;8.686;2022-08-21T04:09:13;4.53;;;3.40;;
60098;SDS011;62818;49.394;8.686;2022-08-21T04:10:14;5.67;;;2.97;;
60098;SDS011;62818;49.394;8.686;2022-08-21T04:11:15;7.22;;;3.17;;
60098;SDS011;62818;49.394;8.686;2022-08-21T04:12:23;4.70;;;3.03;;
60098;SDS011;62818;49.394;8.686;2022-08-21T04:13:24;4.73;;;2.60;;
60098;SDS011;62818;49.394;8.686;2022-08-21T04:14:28;6.57;;;3.50;;
60098;SDS011;62818;49.394;8.686;2022-08-21T04:15:28;5.17;;;3.30;;
60098;SDS011;62818;49.394;8.686;2022-08-21T04:16:34;7.07;;;3.45;;
60098;SDS011;62818;49.394;8.686;2022-08-21T04:17:35;4.55;;;2.95;;
60098;SDS011;62818;49.394;8.686;2022-08-21T04:18:40;4.38;;;2.97;;
60098;SDS011;62818;49.394;8.686;2022-08-21T04:19:45;5.25;;;3.10;;
60098;SDS011;62818;49.394;8.686;2022-08-21T04:20:46;6.05;;;3.20;;
60098;SDS011;62818;49.394;8.686;2022-08-21T04:21:53;6.28;;;3.03;;
60098;SDS011;62818;49.394;8.686;2022-08-21T04:22:57;4.88;;;2.90;;
60098;SDS011;62818;49.394;8.686;2022-08-21T04:23:57;4.33;;;3.10;;
60098;SDS011;62818;49.394;8.686;2022-08-21T04:25:00;4.72;;;2.80;;
60098;SDS011;62818;49.394;8.686;2022-08-21T04:26:05;4.18;;;3.15;;
60098;SDS011;62818;49.394;8.686;2022-08-21T04:27:08;5.65;;;3.30;;
60098;SDS011;62818;49.394;8.686;2022-08-21T04:28:11;6.57;;;3.53;;
60098;SDS011;62818;49.394;8.686;2022-08-21T04:29:11;5.77;;;3.33;;
60098;SDS011;62818;49.394;8.686;2022-08-21T04:30:15;4.00;;;2.70;;
60098;SDS011;62818;49.394;8.686;2022-08-21T04:31:20;4.68;;;2.85;;
60098;SDS011;62818;49.394;8.686;2022-08-21T04:32:22;6.07;;;3.27;;
60098;SDS011;62818;49.394;8.686;2022-08-21T04:33:27;4.15;;;2.92;;
60098;SDS011;62818;49.394;8.686;2022-08-21T04:34:29;8.43;;;3.20;;
60098;SDS011;62818;49.394;8.686;2022-08-21T04:35:31;4.87;;;3.10;;
60098;SDS011;62818;49.394;8.686;2022-08-21T04:36:35;6.65;;;3.35;;
60098;SDS011;62818;49.394;8.686;2022-08-21T04:37:40;4.50;;;3.10;;
60098;SDS011;62818;49.394;8.686;2022-08-21T04:38:40;6.43;;;3.00;;
60098;SDS011;62818;49.394;8.686;2022-08-21T04:39:41;4.87;;;3.07;;
60098;SDS011;62818;49.394;8.686;2022-08-21T04:40:42;5.45;;;3.10;;
60098;SDS011;62818;49.394;8.686;2022-08-21T04:41:45;6.28;;;2.72;;
60098;SDS011;62818;49.394;8.686;2022-08-21T04:42:55;4.35;;;2.90;;
60098;SDS011;62818;49.394;8.686;2022-08-21T04:44:05;7.72;;;3.65;;
60098;SDS011;62818;49.394;8.686;2022-08-21T04:45:07;6.70;;;3.70;;
60098;SDS011;62818;49.394;8.686;2022-08-21T04:46:15;4.53;;;2.78;;
60098;SDS011;62818;49.394;8.686;2022-08-21T04:47:18;6.10;;;3.10;;
60098;SDS011;62818;49.394;8.686;2022-08-21T04:48:21;4.97;;;3.20;;
60098;SDS011;62818;49.394;8.686;2022-08-21T04:49:26;6.35;;;3.30;;
60098;SDS011;62818;49.394;8.686;2022-08-21T04:50:36;6.00;;;3.10;;
60098;SDS011;62818;49.394;8.686;2022-08-21T04:51:43;5.50;;;3.10;;
60098;SDS011;62818;49.394;8.686;2022-08-21T04:52:47;6.25;;;3.50;;
60098;SDS011;62818;49.394;8.686;2022-08-21T04:55:02;6.35;;;2.85;;
60098;SDS011;62818;49.394;8.686;2022-08-21T04:56:08;7.53;;;3.55;;
60098;SDS011;62818;49.394;8.686;2022-08-21T04:57:15;6.70;;;3.70;;
60098;SDS011;62818;49.394;8.686;2022-08-21T04:58:19;5.35;;;3.55;;
60098;SDS011;62818;49.394;8.686;2022-08-21T04:59:24;7.18;;;3.63;;
60098;SDS011;62818;49.394;8.686;2022-08-21T05:00:32;4.78;;;3.13;;
60098;SDS011;62818;49.394;8.686;2022-08-21T05:01:34;6.13;;;3.10;;
60098;SDS011;62818;49.394;8.686;2022-08-21T05:02:37;7.07;;;3.53;;
60098;SDS011;62818;49.394;8.686;2022-08-21T05:03:39;5.63;;;2.90;;
60098;SDS011;62818;49.394;8.686;2022-08-21T05:04:48;8.88;;;3.78;;
60098;SDS011;62818;49.394;8.686;2022-08-21T05:05:55;7.88;;;3.15;;
60098;SDS011;62818;49.394;8.686;2022-08-21T05:06:59;10.30;;;3.25;;
60098;SDS011;62818;49.394;8.686;2022-08-21T05:08:09;4.05;;;2.80;;
60098;SDS011;62818;49.394;8.686;2022-08-21T05:09:16;8.57;;;3.80;;
60098;SDS011;62818;49.394;8.686;2022-08-21T05:10:19;11.50;;;3.63;;
60098;SDS011;62818;49.394;8.686;2022-08-21T05:11:20;5.50;;;3.30;;
60098;SDS011;62818;49.394;8.686;2022-08-21T05:13:22;6.60;;;3.42;;
60098;SDS011;62818;49.394;8.686;2022-08-21T05:14:23;5.07;;;3.60;;
60098;SDS011;62818;49.394;8.686;2022-08-21T05:15:27;3.95;;;2.90;;
60098;SDS011;62818;49.394;8.686;2022-08-21T05:16:32;4.00;;;3.15;;
60098;SDS011;62818;49.394;8.686;2022-08-21T05:17:38;8.20;;;3.33;;
60098;SDS011;62818;49.394;8.686;2022-08-21T05:18:42;5.85;;;3.58;;
60098;SDS011;62818;49.394;8.686;2022-08-21T05:19:45;4.90;;;3.20;;
60098;SDS011;62818;49.394;8.686;2022-08-21T05:20:50;7.32;;;2.90;;
60098;SDS011;62818;49.394;8.686;2022-08-21T05:21:53;7.75;;;3.17;;
60098;SDS011;62818;49.394;8.686;2022-08-21T05:22:55;4.35;;;2.78;;
60098;SDS011;62818;49.394;8.686;2022-08-21T05:23:58;7.18;;;3.10;;
60098;SDS011;62818;49.394;8.686;2022-08-21T05:24:59;4.90;;;3.00;;
60098;SDS011;62818;49.394;8.686;2022-08-21T05:26:04;6.75;;;3.15;;
60098;SDS011;62818;49.394;8.686;2022-08-21T05:27:06;6.80;;;3.10;;
60098;SDS011;62818;49.394;8.686;2022-08-21T05:28:09;5.55;;;3.15;;
60098;SDS011;62818;49.394;8.686;2022-08-21T05:29:10;5.75;;;3.10;;
60098;SDS011;62818;49.394;8.686;2022-08-21T05:30:14;5.30;;;3.25;;
60098;SDS011;62818;49.394;8.686;2022-08-21T05:31:17;7.60;;;3.60;;
60098;SDS011;62818;49.394;8.686;2022-08-21T05:32:19;5.78;;;3.30;;
60098;SDS011;62818;49.394;8.686;2022-08-21T05:33:20;7.30;;;3.47;;
60098;SDS011;62818;49.394;8.686;2022-08-21T05:34:21;8.57;;;3.60;;
60098;SDS011;62818;49.394;8.686;2022-08-21T05:35:23;5.07;;;3.47;;
60098;SDS011;62818;49.394;8.686;2022-08-21T05:37:25;8.23;;;3.30;;
60098;SDS011;62818;49.394;8.686;2022-08-21T05:38:30;11.20;;;3.20;;
60098;SDS011;62818;49.394;8.686;2022-08-21T05:39:33;4.40;;;2.80;;
60098;SDS011;62818;49.394;8.686;2022-08-21T05:40:36;8.75;;;3.33;;
60098;SDS011;62818;49.394;8.686;2022-08-21T05:41:36;6.70;;;2.97;;
60098;SDS011;62818;49.394;8.686;2022-08-21T05:42:37;4.78;;;2.75;;
60098;SDS011;62818;49.394;8.686;2022-08-21T05:43:38;7.60;;;3.17;;
60098;SDS011;62818;49.394;8.686;2022-08-21T05:44:38;6.40;;;2.73;;
60098;SDS011;62818;49.394;8.686;2022-08-21T05:45:41;6.93;;;3.00;;
60098;SDS011;62818;49.394;8.686;2022-08-21T05:46:44;7.60;;;3.50;;
60098;SDS011;62818;49.394;8.686;2022-08-21T05:47:52;3.10;;;2.67;;
60098;SDS011;62818;49.394;8.686;2022-08-21T05:48:55;6.13;;;3.20;;
60098;SDS011;62818;49.394;8.686;2022-08-21T05:49:58;5.00;;;3.00;;
60098;SDS011;62818;49.394;8.686;2022-08-21T05:51:03;4.53;;;3.10;;
60098;SDS011;62818;49.394;8.686;2022-08-21T05:52:10;7.50;;;3.40;;
60098;SDS011;62818;49.394;8.686;2022-08-21T05:53:19;3.85;;;2.88;;
60098;SDS011;62818;49.394;8.686;2022-08-21T05:54:23;8.32;;;3.20;;
60098;SDS011;62818;49.394;8.686;2022-08-21T05:55:24;8.60;;;3.13;;
60098;SDS011;62818;49.394;8.686;2022-08-21T05:56:25;6.23;;;2.77;;
60098;SDS011;62818;49.394;8.686;2022-08-21T05:57:28;6.72;;;3.33;;
60098;SDS011;62818;49.394;8.686;2022-08-21T05:58:31;6.93;;;3.00;;
60098;SDS011;62818;49.394;8.686;2022-08-21T05:59:37;6.82;;;3.08;;
60098;SDS011;62818;49.394;8.686;2022-08-21T06:00:40;7.75;;;3.13;;
60098;SDS011;62818;49.394;8.686;2022-08-21T06:01:44;3.58;;;2.53;;
60098;SDS011;62818;49.394;8.686;2022-08-21T06:02:45;5.03;;;2.63;;
60098;SDS011;62818;49.394;8.686;2022-08-21T06:03:48;6.10;;;3.13;;
60098;SDS011;62818;49.394;8.686;2022-08-21T06:04:51;6.30;;;2.75;;
60098;SDS011;62818;49.394;8.686;2022-08-21T06:05:52;7.00;;;2.90;;
60098;SDS011;62818;49.394;8.686;2022-08-21T06:06:58;10.60;;;3.15;;
60098;SDS011;62818;49.394;8.686;2022-08-21T06:08:01;9.10;;;2.85;;
60098;SDS011;62818;49.394;8.686;2022-08-21T06:09:04;6.82;;;3.10;;
60098;SDS011;62818;49.394;8.686;2022-08-21T06:10:07;6.85;;;2.88;;
60098;SDS011;62818;49.394;8.686;2022-08-21T06:11:10;6.80;;;3.03;;
60098;SDS011;62818;49.394;8.686;2022-08-21T06:12:11;10.57;;;3.15;;
60098;SDS011;62818;49.394;8.686;2022-08-21T06:13:13;8.35;;;2.80;;
60098;SDS011;62818;49.394;8.686;2022-08-21T06:14:16;5.88;;;2.80;;
60098;SDS011;62818;49.394;8.686;2022-08-21T06:15:21;10.40;;;3.60;;
60098;SDS011;62818;49.394;8.686;2022-08-21T06:16:24;6.32;;;3.08;;
60098;SDS011;62818;49.394;8.686;2022-08-21T06:17:29;7.85;;;3.60;;
60098;SDS011;62818;49.394;8.686;2022-08-21T06:18:35;5.85;;;3.25;;
60098;SDS011;62818;49.394;8.686;2022-08-21T06:19:38;5.10;;;2.70;;
60098;SDS011;62818;49.394;8.686;2022-08-21T06:20:41;6.43;;;2.97;;
60098;SDS011;62818;49.394;8.686;2022-08-21T06:21:44;10.15;;;2.97;;
60098;SDS011;62818;49.394;8.686;2022-08-21T06:22:44;6.13;;;2.77;;
60098;SDS011;62818;49.394;8.686;2022-08-21T06:23:45;7.47;;;2.80;;
60098;SDS011;62818;49.394;8.686;2022-08-21T06:24:45;9.13;;;2.97;;
60098;SDS011;62818;49.394;8.686;2022-08-21T06:25:46;6.30;;;3.50;;
60098;SDS011;62818;49.394;8.686;2022-08-21T06:26:46;10.73;;;3.10;;
60098;SDS011;62818;49.394;8.686;2022-08-21T06:27:47;6.28;;;2.97;;
60098;SDS011;62818;49.394;8.686;2022-08-21T06:28:47;9.83;;;3.47;;
60098;SDS011;62818;49.394;8.686;2022-08-21T06:29:53;6.70;;;3.08;;
60098;SDS011;62818;49.394;8.686;2022-08-21T06:30:56;10.45;;;2.95;;
60098;SDS011;62818;49.394;8.686;2022-08-21T06:31:56;7.43;;;2.93;;